Avon, Mississippi
Current Conditions -  °F | °C
As of 2:53 PM on Tuesday 21 Oct 2014 (Local Time) from KGLH Reporting Station
Few Clouds Few Clouds  
Wind Chill: 80°   Ceiling: Unl
Heat Index: 80°   Visibility: 10mi
Dew Point: 56°   Wind: 5mph
Humidity: 43%   Direction: 330°NNW
Pressure: 30.02"   Gusts: NA
Location:  33.23°N, 91.05°W
Report Text: KGLH 211953Z AUTO 33004KT 10SM FEW050 27/13 A3002 RMK AO2 SLP172 T02670133
Loading
Personal Weather Stations






























Interactive Weather Map
Tropical Storm Tracking
New forecast layout! Learn more

10-Day Weather Forecast

Advertisements
Track Severe Weather on mobile